Time;durP1;ratioP1;P1;durP2;ratioP2;P2;SDS_P1;SDS_P2;PMS_P1;PMS_P2;Temp;Humidity;BMP_temperature;BMP_pressure;BME280_temperature;BME280_humidity;BME280_pressure;Samples;Min_cycle;Max_cycle;Signal;HPM_P1;HPM_P2
2024/02/08 00:00:32;;;;;;;20.00;13.82;;;3.40;99.90;;;;;;2008213;29;20560;-75
2024/02/08 00:01:33;;;;;;;19.17;13.50;;;3.40;99.90;;;;;;2004394;29;20108;-75
2024/02/08 00:02:34;;;;;;;19.10;14.18;;;3.40;99.90;;;;;;2006583;29;20033;-75
2024/02/08 00:03:34;;;;;;;20.20;13.95;;;3.40;99.90;;;;;;2005927;29;20112;-76
2024/02/08 00:04:37;;;;;;;21.67;15.13;;;3.40;99.90;;;;;;2011349;29;20093;-76
2024/02/08 00:05:38;;;;;;;21.80;14.80;;;3.40;99.90;;;;;;2009052;29;20116;-75
2024/02/08 00:06:38;;;;;;;20.80;14.70;;;3.40;99.90;;;;;;2003742;29;20017;-75
2024/02/08 00:07:39;;;;;;;21.23;15.00;;;3.40;99.90;;;;;;2013015;29;20032;-75
2024/02/08 00:08:40;;;;;;;21.90;14.90;;;3.40;99.90;;;;;;2005827;29;20032;-76
2024/02/08 00:09:40;;;;;;;21.70;14.55;;;3.30;99.90;;;;;;2007534;29;20132;-76
2024/02/08 00:10:41;;;;;;;22.98;15.18;;;3.40;99.90;;;;;;2009153;29;20013;-76
2024/02/08 00:11:42;;;;;;;22.08;15.18;;;3.30;99.90;;;;;;2009314;29;20029;-75
2024/02/08 00:12:43;;;;;;;21.77;14.50;;;3.40;99.90;;;;;;2003649;29;20046;-75
2024/02/08 00:13:43;;;;;;;21.73;15.13;;;3.30;99.90;;;;;;2004792;29;20481;-75
2024/02/08 00:14:44;;;;;;;23.80;15.18;;;3.30;99.90;;;;;;2003778;29;20032;-77
2024/02/08 00:15:46;;;;;;;21.25;14.82;;;3.40;99.90;;;;;;2007286;29;20554;-75
2024/02/08 00:16:46;;;;;;;25.38;16.17;;;3.30;99.90;;;;;;2006316;29;20496;-75
2024/02/08 00:17:47;;;;;;;25.42;16.15;;;3.30;99.90;;;;;;2005699;29;20120;-75
2024/02/08 00:18:48;;;;;;;23.08;15.20;;;3.30;99.90;;;;;;2006936;29;20030;-75
2024/02/08 00:19:49;;;;;;;23.40;15.52;;;3.20;99.90;;;;;;2005373;29;20030;-74
2024/02/08 00:20:50;;;;;;;22.73;15.15;;;3.30;99.90;;;;;;2007183;29;20469;-76
2024/02/08 00:21:51;;;;;;;23.02;15.02;;;3.30;99.90;;;;;;2007304;29;20036;-75
2024/02/08 00:22:54;;;;;;;23.33;15.38;;;3.30;99.90;;;;;;2005615;29;20029;-76
2024/02/08 00:23:55;;;;;;;22.90;15.43;;;3.30;99.90;;;;;;2007381;29;20037;-76
2024/02/08 00:24:55;;;;;;;23.23;14.98;;;3.30;99.90;;;;;;2008340;29;20033;-76
2024/02/08 00:25:56;;;;;;;20.13;14.02;;;3.30;99.90;;;;;;2011388;29;20027;-76
2024/02/08 00:26:58;;;;;;;19.77;13.80;;;3.30;99.90;;;;;;2009592;29;20032;-77
2024/02/08 00:27:59;;;;;;;22.58;14.20;;;3.30;99.90;;;;;;2008818;29;20033;-76
2024/02/08 00:29:00;;;;;;;21.63;14.65;;;3.30;99.90;;;;;;2007307;29;20452;-75
2024/02/08 00:30:01;;;;;;;20.85;13.75;;;3.30;99.90;;;;;;2008230;29;20506;-77
2024/02/08 00:31:06;;;;;;;20.40;13.90;;;3.40;99.90;;;;;;2006120;29;20017;-77
2024/02/08 00:32:06;;;;;;;20.58;14.20;;;3.40;99.90;;;;;;2008592;29;20088;-76
2024/02/08 00:33:08;;;;;;;21.08;14.18;;;3.40;99.90;;;;;;2005862;29;20045;-77
2024/02/08 00:34:09;;;;;;;20.40;13.50;;;3.40;99.90;;;;;;2008718;29;20029;-77
2024/02/08 00:35:09;;;;;;;20.88;13.88;;;3.40;99.90;;;;;;2008243;29;20025;-77
2024/02/08 00:36:11;;;;;;;22.08;14.32;;;3.40;99.90;;;;;;2008643;29;20044;-77
2024/02/08 00:37:11;;;;;;;19.35;13.75;;;3.40;99.90;;;;;;2005457;29;20030;-77
2024/02/08 00:38:12;;;;;;;19.67;13.55;;;3.40;99.90;;;;;;2007915;29;20033;-77
2024/02/08 00:39:13;;;;;;;19.85;13.27;;;3.40;99.90;;;;;;2010753;29;20109;-78
2024/02/08 00:40:15;;;;;;;22.15;13.70;;;3.40;99.90;;;;;;2008137;29;20097;-76
2024/02/08 00:41:15;;;;;;;20.08;13.82;;;3.40;99.90;;;;;;2004941;29;20051;-77
2024/02/08 00:42:16;;;;;;;21.48;13.65;;;3.40;99.90;;;;;;2009529;29;20044;-76
2024/02/08 00:43:19;;;;;;;19.63;13.57;;;3.40;99.90;;;;;;2009029;29;20076;-77
2024/02/08 00:44:20;;;;;;;21.27;13.73;;;3.40;99.90;;;;;;2006860;29;20036;-77
2024/02/08 00:45:24;;;;;;;19.27;13.50;;;3.40;99.90;;;;;;2011438;29;20083;-77
2024/02/08 00:46:25;;;;;;;22.20;14.75;;;3.40;99.90;;;;;;2011333;29;20097;-75
2024/02/08 00:47:26;;;;;;;20.05;14.20;;;3.50;99.90;;;;;;2007654;29;20040;-75
2024/02/08 00:48:26;;;;;;;21.45;13.77;;;3.60;99.90;;;;;;2008603;29;20025;-75
2024/02/08 00:49:27;;;;;;;21.30;14.10;;;3.60;99.90;;;;;;2009033;29;20029;-75
2024/02/08 00:50:28;;;;;;;21.13;14.00;;;3.60;99.90;;;;;;2005852;29;20560;-76
2024/02/08 00:51:31;;;;;;;20.85;14.18;;;3.50;99.90;;;;;;2008100;29;20025;-75
2024/02/08 00:52:33;;;;;;;22.73;14.40;;;3.50;99.90;;;;;;2008320;29;20061;-75
2024/02/08 00:53:33;;;;;;;22.65;14.65;;;3.50;99.90;;;;;;2007445;29;20108;-75
2024/02/08 00:54:35;;;;;;;21.50;14.77;;;3.50;99.90;;;;;;2008175;29;20485;-77
2024/02/08 00:55:36;;;;;;;21.20;14.18;;;3.50;99.90;;;;;;2009319;29;20071;-76
2024/02/08 00:56:37;;;;;;;23.20;14.82;;;3.50;99.90;;;;;;2008030;29;20081;-75
2024/02/08 00:57:38;;;;;;;21.48;14.98;;;3.50;99.90;;;;;;2005418;29;20032;-75
2024/02/08 00:58:39;;;;;;;21.85;14.38;;;3.50;99.90;;;;;;2008686;29;20656;-75
2024/02/08 00:59:40;;;;;;;21.95;14.88;;;3.40;99.90;;;;;;2010691;29;20033;-76
2024/02/08 01:00:42;;;;;;;21.08;14.68;;;3.40;99.90;;;;;;2008771;29;20033;-75
2024/02/08 01:01:42;;;;;;;22.42;15.00;;;3.40;99.90;;;;;;2011549;29;20575;-75
2024/02/08 01:02:43;;;;;;;22.33;15.25;;;3.50;99.90;;;;;;2010927;29;20548;-74
2024/02/08 01:03:45;;;;;;;21.75;14.82;;;3.40;99.90;;;;;;2009589;29;20030;-75
2024/02/08 01:04:48;;;;;;;22.83;15.13;;;3.40;99.90;;;;;;2009590;29;20040;-76
2024/02/08 01:05:52;;;;;;;23.02;15.02;;;3.40;99.90;;;;;;2010501;29;20157;-75
2024/02/08 01:06:53;;;;;;;24.42;15.10;;;3.30;99.90;;;;;;2007313;29;20032;-73
2024/02/08 01:07:53;;;;;;;21.30;14.60;;;3.30;99.90;;;;;;2010066;29;20024;-78
2024/02/08 01:08:54;;;;;;;21.13;14.55;;;3.30;99.90;;;;;;2008680;29;20033;-72
2024/02/08 01:09:55;;;;;;;22.33;14.23;;;3.30;99.90;;;;;;2012013;29;20020;-73
2024/02/08 01:10:56;;;;;;;22.23;14.52;;;3.30;99.90;;;;;;2007977;29;20060;-79
2024/02/08 01:11:57;;;;;;;21.17;14.00;;;3.30;99.90;;;;;;2008434;29;20022;-78
2024/02/08 01:12:59;;;;;;;23.58;14.82;;;3.20;99.90;;;;;;2007113;29;20029;-79
2024/02/08 01:14:02;;;;;;;21.80;14.80;;;3.20;99.90;;;;;;2008753;29;20032;-79
2024/02/08 01:15:04;;;;;;;22.80;15.40;;;3.20;99.90;;;;;;2006591;29;20086;-80
2024/02/08 01:16:05;;;;;;;23.73;15.98;;;3.20;99.90;;;;;;2009113;29;20106;-79
2024/02/08 01:17:06;;;;;;;24.30;15.48;;;3.10;99.90;;;;;;2006357;29;20512;-79
2024/02/08 01:18:06;;;;;;;24.15;15.50;;;3.10;99.90;;;;;;2005557;29;20036;-78
2024/02/08 01:19:07;;;;;;;24.00;15.73;;;3.10;99.90;;;;;;2005266;29;20428;-79
2024/02/08 01:20:09;;;;;;;23.58;15.52;;;3.00;99.90;;;;;;2005710;29;20026;-79
2024/02/08 01:21:10;;;;;;;22.42;14.75;;;3.00;99.90;;;;;;2013496;29;20082;-79
2024/02/08 01:22:11;;;;;;;23.90;15.00;;;3.10;99.90;;;;;;2014094;29;20056;-78
2024/02/08 01:23:12;;;;;;;25.02;15.65;;;3.10;99.90;;;;;;2006681;29;20032;-79
2024/02/08 01:24:18;;;;;;;25.65;15.93;;;3.10;99.90;;;;;;2013224;29;20498;-79
2024/02/08 01:25:18;;;;;;;27.15;15.75;;;3.10;99.90;;;;;;2009815;29;20029;-79
2024/02/08 01:26:19;;;;;;;23.58;15.30;;;3.10;99.90;;;;;;2011344;29;20033;-78
2024/02/08 01:27:20;;;;;;;22.60;14.75;;;3.00;99.90;;;;;;2006581;29;20141;-78
2024/02/08 01:28:21;;;;;;;23.55;14.77;;;3.10;99.90;;;;;;2008947;29;20033;-78
2024/02/08 01:29:24;;;;;;;24.70;15.23;;;3.10;99.90;;;;;;2008768;29;20029;-78
2024/02/08 01:30:24;;;;;;;23.38;14.90;;;3.10;99.90;;;;;;2008141;29;20445;-78
2024/02/08 01:31:25;;;;;;;23.25;14.68;;;3.10;99.90;;;;;;1999070;29;20030;-79
2024/02/08 01:32:29;;;;;;;23.83;14.65;;;3.10;99.90;;;;;;2008382;29;20045;-78
2024/02/08 01:33:29;;;;;;;23.05;14.50;;;3.10;99.90;;;;;;2007670;29;20162;-78
2024/02/08 01:34:30;;;;;;;22.33;14.52;;;3.10;99.90;;;;;;2006774;29;20121;-79
2024/02/08 01:35:31;;;;;;;21.58;13.55;;;3.10;99.90;;;;;;2008492;29;20112;-78
2024/02/08 01:36:32;;;;;;;20.65;13.32;;;3.10;99.90;;;;;;2007206;29;20060;-78
2024/02/08 01:37:38;;;;;;;20.85;12.20;;;3.10;99.90;;;;;;2008343;29;20085;-79
2024/02/08 01:38:42;;;;;;;19.05;11.98;;;3.10;99.90;;;;;;2007003;29;20045;-79
2024/02/08 01:39:43;;;;;;;20.73;12.82;;;3.10;99.90;;;;;;2005811;29;20057;-78
2024/02/08 01:40:44;;;;;;;19.23;11.65;;;3.10;99.90;;;;;;2011493;29;20033;-75
2024/02/08 01:41:44;;;;;;;18.20;11.63;;;3.10;99.90;;;;;;2008264;29;20116;-74
2024/02/08 01:42:46;;;;;;;20.08;11.10;;;3.00;99.90;;;;;;2005241;29;20499;-75
2024/02/08 01:43:46;;;;;;;18.08;11.10;;;3.00;99.90;;;;;;2008409;29;20087;-75
2024/02/08 01:44:48;;;;;;;19.13;11.52;;;3.00;99.90;;;;;;2004761;29;20553;-74
2024/02/08 01:45:49;;;;;;;18.40;10.73;;;3.00;99.90;;;;;;2011689;29;20037;-75
2024/02/08 01:46:50;;;;;;;18.05;10.25;;;3.00;99.90;;;;;;2007661;29;20036;-75
2024/02/08 01:47:50;;;;;;;15.65;9.88;;;3.00;99.90;;;;;;2008348;29;20040;-74
2024/02/08 01:48:51;;;;;;;16.80;10.48;;;2.90;99.90;;;;;;2009317;29;20060;-75
2024/02/08 01:49:52;;;;;;;16.83;9.98;;;3.00;99.90;;;;;;2005198;29;20033;-75
2024/02/08 01:50:57;;;;;;;17.33;9.82;;;3.00;99.90;;;;;;2008172;29;20052;-75
2024/02/08 01:52:01;;;;;;;17.48;10.50;;;3.00;99.90;;;;;;2008262;29;20661;-75
2024/02/08 01:53:05;;;;;;;15.88;10.05;;;3.00;99.90;;;;;;2004988;29;20049;-75
2024/02/08 01:54:08;;;;;;;14.70;9.07;;;3.00;99.90;;;;;;2007187;29;20234;-77
2024/02/08 01:55:10;;;;;;;14.77;9.35;;;3.00;99.90;;;;;;2007322;29;20037;-75
2024/02/08 01:56:11;;;;;;;16.02;9.30;;;3.00;99.90;;;;;;2005419;29;20850;-76
2024/02/08 01:57:16;;;;;;;15.80;9.95;;;3.00;99.90;;;;;;2007400;29;20052;-77
2024/02/08 01:58:20;;;;;;;16.05;9.63;;;3.00;99.90;;;;;;2011638;29;20068;-75
2024/02/08 01:59:20;;;;;;;19.42;10.27;;;3.00;99.90;;;;;;2008866;29;20048;-75
2024/02/08 02:00:21;;;;;;;17.38;9.93;;;2.90;99.90;;;;;;2007516;29;20056;-76
2024/02/08 02:01:23;;;;;;;16.17;9.65;;;2.90;99.90;;;;;;2011261;29;20032;-74
2024/02/08 02:02:27;;;;;;;17.45;9.85;;;2.90;99.90;;;;;;2015072;29;20036;-74
2024/02/08 02:03:27;;;;;;;17.67;10.07;;;3.00;99.90;;;;;;2008367;29;20071;-75
2024/02/08 02:04:31;;;;;;;15.88;10.05;;;3.00;99.90;;;;;;2003914;29;20033;-74
2024/02/08 02:05:32;;;;;;;19.65;10.35;;;3.00;99.90;;;;;;2007634;29;20116;-75
2024/02/08 02:06:32;;;;;;;16.85;10.02;;;2.90;99.90;;;;;;2011850;29;20036;-75
2024/02/08 02:07:35;;;;;;;14.52;9.98;;;2.90;99.90;;;;;;2007711;29;20063;-76
2024/02/08 02:08:38;;;;;;;16.25;10.10;;;2.90;99.90;;;;;;2004706;29;20025;-76
2024/02/08 02:09:39;;;;;;;16.92;9.90;;;2.90;99.90;;;;;;2007233;29;20043;-76
2024/02/08 02:10:41;;;;;;;18.58;9.65;;;2.90;99.90;;;;;;2007741;29;20028;-75
2024/02/08 02:11:47;;;;;;;14.00;8.90;;;2.80;99.90;;;;;;2005825;29;20531;-76
2024/02/08 02:12:49;;;;;;;15.05;8.73;;;2.80;99.90;;;;;;2005931;29;20965;-75
2024/02/08 02:13:51;;;;;;;16.25;9.45;;;2.80;99.90;;;;;;2006983;29;20136;-75
2024/02/08 02:14:53;;;;;;;16.00;8.90;;;2.80;99.90;;;;;;2004516;29;20025;-75
2024/02/08 02:15:53;;;;;;;15.80;9.00;;;2.80;99.90;;;;;;2004694;29;20057;-75
2024/02/08 02:17:10;;;;;;;16.60;8.90;;;2.80;99.90;;;;;;2011505;29;20048;-75
2024/02/08 02:18:12;;;;;;;14.90;8.93;;;2.80;99.90;;;;;;2009412;29;20095;-75
2024/02/08 02:19:12;;;;;;;15.25;9.10;;;2.80;99.90;;;;;;2010327;29;20039;-75
2024/02/08 02:20:18;;;;;;;16.02;8.52;;;2.70;99.90;;;;;;2007933;29;20412;-75
2024/02/08 02:21:22;;;;;;;15.10;8.82;;;2.70;99.90;;;;;;2009270;29;20104;-75
2024/02/08 02:22:23;;;;;;;15.02;9.10;;;2.70;99.90;;;;;;2009123;29;20036;-76
2024/02/08 02:23:24;;;;;;;15.85;8.60;;;2.80;99.90;;;;;;2003579;29;20040;-75
2024/02/08 02:24:25;;;;;;;15.20;9.10;;;2.80;99.90;;;;;;2004284;29;20050;-77
2024/02/08 02:25:27;;;;;;;13.90;8.85;;;2.80;99.90;;;;;;2004318;29;20046;-77
2024/02/08 02:26:29;;;;;;;15.00;8.50;;;2.70;99.90;;;;;;2004422;29;20041;-76
2024/02/08 02:27:30;;;;;;;17.90;9.52;;;2.70;99.90;;;;;;2009214;29;20037;-76
2024/02/08 02:28:31;;;;;;;16.92;9.00;;;2.70;99.90;;;;;;2008047;29;20032;-77
2024/02/08 02:29:33;;;;;;;14.60;8.95;;;2.70;99.90;;;;;;2007626;29;20552;-76
2024/02/08 02:30:35;;;;;;;16.88;9.27;;;2.70;99.90;;;;;;2007414;29;20115;-75
2024/02/08 02:31:37;;;;;;;14.48;8.77;;;2.70;99.90;;;;;;1999359;29;20025;-76
2024/02/08 02:32:38;;;;;;;16.13;9.50;;;2.70;99.90;;;;;;2011792;29;20037;-75
2024/02/08 02:33:42;;;;;;;15.13;8.85;;;2.70;99.90;;;;;;2007953;29;20033;-75
2024/02/08 02:34:44;;;;;;;15.15;8.70;;;2.70;99.90;;;;;;2005006;29;20064;-75
2024/02/08 02:35:48;;;;;;;14.95;8.82;;;2.70;99.90;;;;;;2008172;29;20067;-76
2024/02/08 02:36:53;;;;;;;15.35;9.05;;;2.70;99.90;;;;;;2010187;29;20499;-75
2024/02/08 02:37:54;;;;;;;16.42;9.02;;;2.70;99.90;;;;;;2006487;29;20041;-76
2024/02/08 02:38:55;;;;;;;15.57;9.90;;;2.60;99.90;;;;;;2005477;29;20041;-75
2024/02/08 02:39:55;;;;;;;17.20;9.07;;;2.60;99.90;;;;;;2007464;29;20059;-77
2024/02/08 02:41:04;;;;;;;17.63;9.35;;;2.60;99.90;;;;;;2012760;29;20450;-74
2024/02/08 02:42:06;;;;;;;18.08;9.13;;;2.50;99.90;;;;;;2004234;29;20108;-74
2024/02/08 02:43:09;;;;;;;15.98;9.10;;;2.50;99.90;;;;;;2007959;29;20463;-74
2024/02/08 02:44:10;;;;;;;17.42;9.15;;;2.50;99.90;;;;;;2006679;29;20029;-75
2024/02/08 02:45:13;;;;;;;16.15;9.85;;;2.60;99.90;;;;;;2007760;29;20052;-75
2024/02/08 02:46:13;;;;;;;18.48;9.95;;;2.50;99.90;;;;;;2007042;29;20105;-75
2024/02/08 02:47:14;;;;;;;17.35;9.98;;;2.50;99.90;;;;;;2007885;29;20037;-75
2024/02/08 02:48:14;;;;;;;18.10;10.30;;;2.50;99.90;;;;;;2005236;29;20408;-76
2024/02/08 02:49:17;;;;;;;21.23;10.05;;;2.40;99.90;;;;;;2006911;29;20041;-75
2024/02/08 02:50:18;;;;;;;16.05;9.65;;;2.50;99.90;;;;;;2009392;29;20045;-74
2024/02/08 02:51:19;;;;;;;18.40;10.27;;;2.40;99.90;;;;;;2007909;29;20083;-75
2024/02/08 02:52:21;;;;;;;16.27;9.30;;;2.40;99.90;;;;;;2007306;29;20036;-75
2024/02/08 02:53:24;;;;;;;16.63;9.40;;;2.40;99.90;;;;;;2009401;29;20025;-75
2024/02/08 02:54:30;;;;;;;17.67;8.98;;;2.40;99.90;;;;;;2006857;29;20540;-75
2024/02/08 02:55:31;;;;;;;17.35;9.45;;;2.40;99.90;;;;;;2008647;29;20043;-76
2024/02/08 02:56:31;;;;;;;15.43;9.32;;;2.40;99.90;;;;;;2007748;29;20032;-77
2024/02/08 02:57:35;;;;;;;17.15;9.18;;;2.40;99.90;;;;;;2004255;29;20028;-76
2024/02/08 02:58:36;;;;;;;16.80;9.20;;;2.50;99.90;;;;;;2008124;29;20511;-76
2024/02/08 02:59:37;;;;;;;17.60;9.40;;;2.60;99.90;;;;;;2011731;29;20098;-77
2024/02/08 03:00:38;;;;;;;15.40;9.00;;;2.60;99.90;;;;;;2007797;29;20470;-76
2024/02/08 03:01:42;;;;;;;14.50;8.82;;;2.50;99.90;;;;;;2007376;29;20029;-75
2024/02/08 03:02:43;;;;;;;13.48;8.50;;;2.60;99.90;;;;;;1999299;29;20038;-74
2024/02/08 03:03:47;;;;;;;12.63;8.50;;;2.50;99.90;;;;;;2007131;29;20112;-75
2024/02/08 03:04:49;;;;;;;15.02;9.07;;;2.60;99.90;;;;;;2003613;29;20073;-76
2024/02/08 03:05:49;;;;;;;14.48;9.15;;;2.60;99.90;;;;;;2003692;29;21138;-76
2024/02/08 03:06:53;;;;;;;13.75;8.07;;;2.60;99.90;;;;;;2006924;29;20103;-75
2024/02/08 03:07:53;;;;;;;15.30;8.95;;;2.60;99.90;;;;;;2007089;29;20496;-75
2024/02/08 03:08:57;;;;;;;14.85;8.88;;;2.60;99.90;;;;;;2005030;29;20078;-75
2024/02/08 03:09:58;;;;;;;13.85;8.60;;;2.60;99.90;;;;;;2005554;29;20659;-75
2024/02/08 03:10:58;;;;;;;15.18;9.40;;;2.70;99.90;;;;;;2010076;29;20077;-75
2024/02/08 03:11:59;;;;;;;15.20;9.23;;;2.70;99.90;;;;;;2011307;29;20519;-75
2024/02/08 03:13:00;;;;;;;13.80;9.27;;;2.70;99.90;;;;;;2005665;29;20924;-75
2024/02/08 03:14:04;;;;;;;15.48;8.93;;;2.70;99.90;;;;;;2007724;29;20617;-75
2024/02/08 03:15:09;;;;;;;14.63;8.80;;;2.60;99.90;;;;;;2009473;29;21169;-74
2024/02/08 03:16:10;;;;;;;14.05;8.80;;;2.60;99.90;;;;;;2003987;29;20125;-75
2024/02/08 03:17:12;;;;;;;14.75;9.20;;;2.70;99.90;;;;;;2007864;29;20053;-76
2024/02/08 03:18:14;;;;;;;15.18;9.20;;;2.70;99.90;;;;;;2012000;29;20227;-76
2024/02/08 03:19:15;;;;;;;16.90;9.85;;;2.70;99.90;;;;;;2011507;29;20061;-76
2024/02/08 03:20:17;;;;;;;14.77;9.27;;;2.70;99.90;;;;;;2011215;29;20128;-75
2024/02/08 03:21:17;;;;;;;16.88;9.40;;;2.80;99.90;;;;;;2011317;29;20029;-75
2024/02/08 03:22:18;;;;;;;14.00;8.80;;;2.80;99.90;;;;;;2010762;29;20036;-76
2024/02/08 03:23:24;;;;;;;16.40;9.70;;;2.80;99.90;;;;;;2003059;29;20025;-75
2024/02/08 03:24:28;;;;;;;15.75;9.82;;;2.80;99.90;;;;;;1994618;29;20037;-75
2024/02/08 03:25:30;;;;;;;15.75;9.70;;;2.80;99.90;;;;;;2000457;29;20093;-75
2024/02/08 03:26:32;;;;;;;16.10;10.20;;;2.80;99.90;;;;;;2011142;29;20025;-76
2024/02/08 03:27:34;;;;;;;16.92;10.35;;;2.90;99.90;;;;;;2008143;29;20089;-76
2024/02/08 03:28:35;;;;;;;16.27;9.80;;;2.80;99.90;;;;;;1998399;29;20117;-76
2024/02/08 03:29:36;;;;;;;17.92;10.07;;;2.80;99.90;;;;;;1997195;29;20026;-76
2024/02/08 03:30:36;;;;;;;17.33;10.98;;;2.80;99.90;;;;;;2004701;29;20719;-76
2024/02/08 03:31:45;;;;;;;18.35;10.90;;;2.80;99.90;;;;;;2007826;29;20548;-77
2024/02/08 03:32:49;;;;;;;18.65;11.23;;;2.80;99.90;;;;;;2004184;29;20410;-76
2024/02/08 03:33:50;;;;;;;21.50;11.85;;;2.80;99.90;;;;;;2008266;29;20044;-75
2024/02/08 03:34:53;;;;;;;19.10;11.93;;;2.70;99.90;;;;;;2010429;29;20040;-76
2024/02/08 03:35:54;;;;;;;17.92;11.68;;;2.80;99.90;;;;;;2012093;29;20020;-75
2024/02/08 03:36:56;;;;;;;18.70;12.30;;;2.80;99.90;;;;;;2008821;29;20492;-76
2024/02/08 03:38:00;;;;;;;21.65;13.38;;;2.80;99.90;;;;;;2016586;29;20499;-75
2024/02/08 03:39:03;;;;;;;20.30;12.60;;;2.70;99.90;;;;;;2004070;29;20108;-75
2024/02/08 03:40:05;;;;;;;21.77;13.68;;;2.70;99.90;;;;;;2013308;29;20041;-76
2024/02/08 03:41:05;;;;;;;22.80;13.43;;;2.70;99.90;;;;;;2006162;29;20040;-76
2024/02/08 03:42:06;;;;;;;22.58;13.88;;;2.60;99.90;;;;;;2003930;29;20044;-76
2024/02/08 03:43:08;;;;;;;22.00;13.75;;;2.60;99.90;;;;;;2003617;29;20048;-75
2024/02/08 03:44:12;;;;;;;22.40;13.45;;;2.60;99.90;;;;;;2009823;29;20037;-75
2024/02/08 03:45:13;;;;;;;22.45;12.90;;;2.70;99.90;;;;;;2012874;29;20043;-76
2024/02/08 03:46:14;;;;;;;21.63;13.63;;;2.70;99.90;;;;;;2005291;29;20030;-76
2024/02/08 03:47:17;;;;;;;22.08;13.60;;;2.70;99.90;;;;;;2003094;29;20098;-75
2024/02/08 03:48:19;;;;;;;20.92;13.32;;;2.80;99.90;;;;;;2007283;29;20029;-77
2024/02/08 03:49:20;;;;;;;20.75;13.35;;;2.80;99.90;;;;;;2010142;29;20037;-76
2024/02/08 03:50:24;;;;;;;22.63;13.40;;;2.80;99.90;;;;;;2004005;29;20104;-75
2024/02/08 03:51:25;;;;;;;22.80;13.75;;;2.80;99.90;;;;;;2014062;29;20555;-76
2024/02/08 03:52:30;;;;;;;23.42;14.32;;;2.90;99.90;;;;;;2015302;29;20024;-76
2024/02/08 03:53:34;;;;;;;21.90;13.70;;;2.80;99.90;;;;;;2008996;29;20038;-76
2024/02/08 03:54:38;;;;;;;24.35;14.18;;;2.80;99.90;;;;;;2007836;29;20030;-76
2024/02/08 03:55:43;;;;;;;23.70;14.23;;;2.80;99.90;;;;;;2011601;29;20140;-76
2024/02/08 03:56:49;;;;;;;21.67;14.05;;;2.80;99.90;;;;;;2015625;29;20053;-76
2024/02/08 03:57:50;;;;;;;22.60;13.98;;;2.80;99.90;;;;;;2002519;29;20035;-76
2024/02/08 03:58:52;;;;;;;22.25;14.02;;;2.80;99.90;;;;;;2000520;29;20052;-76
2024/02/08 03:59:52;;;;;;;23.50;14.10;;;2.70;99.90;;;;;;2006224;29;20123;-76
2024/02/08 04:00:53;;;;;;;25.10;14.38;;;2.60;99.90;;;;;;2012663;29;20025;-75
2024/02/08 04:02:01;;;;;;;25.05;14.82;;;2.60;99.90;;;;;;2011545;29;20112;-75
2024/02/08 04:03:06;;;;;;;25.75;15.05;;;2.60;99.90;;;;;;2007785;29;20101;-75
2024/02/08 04:04:13;;;;;;;25.92;14.63;;;2.70;99.90;;;;;;2005506;29;20060;-76
2024/02/08 04:05:24;;;;;;;23.58;14.70;;;2.70;99.90;;;;;;2012450;29;20033;-74
2024/02/08 04:06:49;;;;;;;26.58;15.35;;;2.70;99.90;;;;;;2008278;29;20021;-75
2024/02/08 04:07:57;;;;;;;27.52;15.38;;;2.70;99.90;;;;;;2008020;29;20101;-75
2024/02/08 04:09:08;;;;;;;25.40;14.48;;;2.80;99.90;;;;;;2001037;29;20026;-75
2024/02/08 04:10:23;;;;;;;24.15;14.20;;;2.70;99.90;;;;;;1998838;29;20548;-76
2024/02/08 04:54:03;;;;;;;21.27;12.38;;;2.50;99.90;;;;;;1992547;29;20083;-76
2024/02/08 04:55:03;;;;;;;20.90;12.52;;;2.50;99.90;;;;;;1990087;29;20027;-75
2024/02/08 04:56:10;;;;;;;22.75;12.77;;;2.50;99.90;;;;;;1997449;29;20113;-76
2024/02/08 04:57:11;;;;;;;21.08;12.48;;;2.50;99.90;;;;;;2001076;29;20041;-76
2024/02/08 04:58:11;;;;;;;20.98;12.60;;;2.50;99.90;;;;;;1988762;29;20691;-76
2024/02/08 04:59:12;;;;;;;23.58;13.10;;;2.50;99.90;;;;;;1989159;29;20753;-75
2024/02/08 05:00:13;;;;;;;27.40;15.23;;;2.50;99.90;;;;;;2000218;29;20129;-76
2024/02/08 05:01:14;;;;;;;24.23;14.20;;;2.50;99.90;;;;;;1992732;29;20121;-75
2024/02/08 05:02:14;;;;;;;28.63;14.70;;;2.60;99.90;;;;;;1989543;29;20038;-75
2024/02/08 05:03:17;;;;;;;22.30;13.45;;;2.60;99.90;;;;;;2000404;29;20025;-75
2024/02/08 05:04:20;;;;;;;21.05;12.32;;;2.60;99.90;;;;;;2000981;29;20148;-77
2024/02/08 05:05:21;;;;;;;22.52;12.40;;;2.60;99.90;;;;;;2002654;29;20106;-78
2024/02/08 05:06:25;;;;;;;21.25;13.00;;;2.60;99.90;;;;;;1999706;29;20038;-77
2024/02/08 05:07:26;;;;;;;22.42;12.90;;;2.60;99.90;;;;;;2000656;29;20030;-77
2024/02/08 05:08:26;;;;;;;22.77;13.45;;;2.60;99.90;;;;;;1999438;29;20027;-76
2024/02/08 05:09:27;;;;;;;22.33;13.15;;;2.60;99.90;;;;;;1998874;29;20130;-74
2024/02/08 05:10:28;;;;;;;21.58;13.20;;;2.60;99.90;;;;;;2000954;29;20686;-75
2024/02/08 05:11:29;;;;;;;24.23;13.65;;;2.60;99.90;;;;;;2003522;29;20422;-76
2024/02/08 05:12:30;;;;;;;22.58;13.32;;;2.50;99.90;;;;;;1992685;29;20034;-76
2024/02/08 05:13:31;;;;;;;22.48;13.23;;;2.50;99.90;;;;;;1998457;29;20506;-75
2024/02/08 05:14:35;;;;;;;23.23;12.85;;;2.60;99.90;;;;;;1992688;29;20038;-76
2024/02/08 05:15:35;;;;;;;22.73;13.02;;;2.50;99.90;;;;;;2003952;29;24191;-76
2024/02/08 05:16:37;;;;;;;24.50;13.48;;;2.50;99.90;;;;;;2011433;29;20047;-76
2024/02/08 05:17:38;;;;;;;22.75;13.02;;;2.60;99.90;;;;;;2011870;29;20709;-77
2024/02/08 05:18:42;;;;;;;22.38;13.95;;;2.50;99.90;;;;;;2011211;29;20024;-77
2024/02/08 05:19:43;;;;;;;23.70;13.48;;;2.50;99.90;;;;;;2012232;29;20037;-75
2024/02/08 05:20:48;;;;;;;27.73;15.20;;;2.50;99.90;;;;;;2004980;29;20045;-76
2024/02/08 05:21:48;;;;;;;24.45;14.73;;;2.50;99.90;;;;;;2005311;29;20042;-75
2024/02/08 05:22:49;;;;;;;26.92;14.63;;;2.50;99.90;;;;;;2007980;29;20030;-75
2024/02/08 05:23:51;;;;;;;24.40;14.13;;;2.50;99.90;;;;;;2005268;29;20765;-75
2024/02/08 05:24:51;;;;;;;26.50;14.63;;;2.50;99.90;;;;;;2010816;29;20040;-75
2024/02/08 05:25:52;;;;;;;25.27;13.77;;;2.50;99.90;;;;;;2008399;29;20633;-76
2024/02/08 05:26:53;;;;;;;22.95;13.55;;;2.60;99.90;;;;;;2004746;29;20034;-75
2024/02/08 05:27:53;;;;;;;24.20;13.18;;;2.60;99.90;;;;;;2004854;29;20045;-75
2024/02/08 05:28:54;;;;;;;22.88;13.35;;;2.60;99.90;;;;;;2004915;29;20077;-75
2024/02/08 05:29:55;;;;;;;23.85;13.52;;;2.50;99.90;;;;;;2008318;29;20540;-75
2024/02/08 05:30:56;;;;;;;23.63;13.57;;;2.50;99.90;;;;;;2003739;29;20077;-75
2024/02/08 05:31:58;;;;;;;24.40;13.75;;;2.60;99.90;;;;;;2012423;29;20524;-75
2024/02/08 05:33:01;;;;;;;21.45;12.95;;;2.60;99.90;;;;;;2007396;29;20037;-76
2024/02/08 05:34:01;;;;;;;24.77;14.13;;;2.60;99.90;;;;;;2008216;29;20052;-74
2024/02/08 05:35:04;;;;;;;23.20;13.15;;;2.50;99.90;;;;;;2005563;29;20029;-75
2024/02/08 05:36:06;;;;;;;24.98;14.07;;;2.50;99.90;;;;;;2006931;29;20034;-76
2024/02/08 05:37:08;;;;;;;26.25;15.73;;;2.60;99.90;;;;;;2007192;29;20447;-76
2024/02/08 05:38:08;;;;;;;25.10;15.20;;;2.60;99.90;;;;;;2005629;29;20074;-76
2024/02/08 05:39:10;;;;;;;25.25;15.50;;;2.60;99.90;;;;;;2006189;29;20055;-75
2024/02/08 05:40:14;;;;;;;22.88;14.10;;;2.60;99.90;;;;;;2008454;29;20081;-76
2024/02/08 05:41:15;;;;;;;23.67;14.07;;;2.60;99.90;;;;;;2007586;29;20566;-75
2024/02/08 05:42:17;;;;;;;22.55;13.35;;;2.50;99.90;;;;;;2005155;29;20041;-75
2024/02/08 05:43:30;;;;;;;25.27;14.13;;;2.60;99.90;;;;;;2008154;29;20053;-75
2024/02/08 05:44:31;;;;;;;21.90;13.13;;;2.60;99.90;;;;;;2004223;29;20026;-75
2024/02/08 05:45:31;;;;;;;23.45;13.45;;;2.60;99.90;;;;;;2004600;29;20808;-75
2024/02/08 05:46:37;;;;;;;24.00;13.55;;;2.60;99.90;;;;;;2004565;29;20033;-75
2024/02/08 05:47:38;;;;;;;23.17;13.57;;;2.60;99.90;;;;;;2008220;29;20539;-75
2024/02/08 05:48:39;;;;;;;24.27;13.60;;;2.60;99.90;;;;;;2008632;29;20040;-76
2024/02/08 05:49:48;;;;;;;23.30;13.35;;;2.70;99.90;;;;;;2007960;29;20108;-75
2024/02/08 05:50:56;;;;;;;23.40;13.77;;;2.70;99.90;;;;;;2007550;29;20033;-76
2024/02/08 05:52:05;;;;;;;24.83;13.85;;;2.70;99.90;;;;;;2015842;29;20039;-76
2024/02/08 05:53:09;;;;;;;23.25;13.80;;;2.70;99.90;;;;;;2003870;29;20505;-77
2024/02/08 05:54:09;;;;;;;23.80;13.75;;;2.70;99.90;;;;;;2007942;29;20025;-76
2024/02/08 05:55:12;;;;;;;26.02;13.95;;;2.80;99.90;;;;;;2006252;29;20139;-76
2024/02/08 05:56:21;;;;;;;24.90;14.02;;;2.70;99.90;;;;;;2011489;29;20056;-75
2024/02/08 05:57:21;;;;;;;24.20;14.05;;;2.70;99.90;;;;;;2010229;29;20555;-74
2024/02/08 05:58:22;;;;;;;25.17;14.07;;;2.70;99.90;;;;;;2004726;29;20312;-76
2024/02/08 05:59:22;;;;;;;22.88;13.95;;;2.70;99.90;;;;;;2007723;29;20036;-75
2024/02/08 06:00:32;;;;;;;26.02;14.30;;;2.70;99.90;;;;;;2007066;29;20041;-75
2024/02/08 06:01:43;;;;;;;24.60;14.90;;;2.70;99.90;;;;;;2010909;29;20119;-75
2024/02/08 06:02:46;;;;;;;25.38;14.15;;;2.70;99.90;;;;;;1997960;29;20121;-75
2024/02/08 06:03:50;;;;;;;22.52;13.82;;;2.70;99.90;;;;;;2002977;29;20519;-75